CFF9 weather

Public forecast

Using degrees Celsius for public forecast. Weather courtesy of forecast.io.

Closest aviation weather report (METAR) to Marek Farms Airport

Closest report is Edmonton International Airport, 33.4 nm (61.8 km) WNW. Retrieved 2020/08/09 17:00 UTC (3 minutes ago):

CYEG 091700Z 29016G25KT 20SM FEW240 16/06 A3000 RMK CI1 CI TR SLP171 DENSITY ALT 3000FT

Closest aviation forecast (TAF) to Marek Farms Airport

Closest forecast is Edmonton International Airport, 33.4 nm (61.8 km) WNW. Retrieved 2020/08/09 15:42 UTC (1 hour ago):

TAF TAF CYEG 091439Z 0915/1012 28015G25KT P6SM SCT120 BKN240 FM091800 28020G30KT P6SM FEW060 BECMG 0920/0922 30015G25KT FM100000 30015G25KT P6SM SKC BECMG 1002/1004 VRB03KT FM100900 23006KT P6SM BKN070 RMK NXT FCST BY 091800Z